sensor_id;sensor_type;location;lat;lon;timestamp;P1;P2;P0
46381;PMS5003;66809;52.974;-2.514;2023-02-28T00:01:47;25.033333333333335;23.45;
46381;PMS5003;66809;52.974;-2.514;2023-02-28T00:03:47;25.133333333333333;23.6;
46381;PMS5003;66809;52.974;-2.514;2023-02-28T00:05:47;25.283333333333335;23.75;
46381;PMS5003;66809;52.974;-2.514;2023-02-28T00:07:47;25.316666666666666;23.833333333333332;
46381;PMS5003;66809;52.974;-2.514;2023-02-28T00:09:47;25.633333333333333;24.15;
46381;PMS5003;66809;52.974;-2.514;2023-02-28T00:11:47;25.533333333333335;24.05;
46381;PMS5003;66809;52.974;-2.514;2023-02-28T00:13:47;25.566666666666666;24.083333333333332;
46381;PMS5003;66809;52.974;-2.514;2023-02-28T00:15:47;25.633333333333333;24.166666666666668;
46381;PMS5003;66809;52.974;-2.514;2023-02-28T00:17:47;25.666666666666668;24.2;
46381;PMS5003;66809;52.974;-2.514;2023-02-28T00:19:47;25.7;24.216666666666665;
46381;PMS5003;66809;52.974;-2.514;2023-02-28T00:21:47;25.716666666666665;24.266666666666666;
46381;PMS5003;66809;52.974;-2.514;2023-02-28T00:23:47;25.7;24.283333333333335;
46381;PMS5003;66809;52.974;-2.514;2023-02-28T00:25:47;25.366666666666667;23.983333333333334;
46381;PMS5003;66809;52.974;-2.514;2023-02-28T00:27:47;25.216666666666665;23.85;
46381;PMS5003;66809;52.974;-2.514;2023-02-28T00:29:47;24.966666666666665;23.566666666666666;
46381;PMS5003;66809;52.974;-2.514;2023-02-28T00:31:47;24.483333333333334;23.133333333333333;
46381;PMS5003;66809;52.974;-2.514;2023-02-28T00:33:47;23.983333333333334;22.65;
46381;PMS5003;66809;52.974;-2.514;2023-02-28T00:35:47;23.666666666666668;22.383333333333333;
46381;PMS5003;66809;52.974;-2.514;2023-02-28T00:37:47;23.1;21.9;
46381;PMS5003;66809;52.974;-2.514;2023-02-28T00:39:47;22.533333333333335;21.466666666666665;
46381;PMS5003;66809;52.974;-2.514;2023-02-28T00:41:47;22.1;21.033333333333335;
46381;PMS5003;66809;52.974;-2.514;2023-02-28T00:43:47;21.566666666666666;20.5;
46381;PMS5003;66809;52.974;-2.514;2023-02-28T00:45:47;21.166666666666668;20.1;
46381;PMS5003;66809;52.974;-2.514;2023-02-28T00:47:47;20.716666666666665;19.666666666666668;
46381;PMS5003;66809;52.974;-2.514;2023-02-28T00:49:47;20.333333333333332;19.35;
46381;PMS5003;66809;52.974;-2.514;2023-02-28T00:51:47;19.95;19.016666666666666;
46381;PMS5003;66809;52.974;-2.514;2023-02-28T00:53:47;19.733333333333334;18.766666666666666;
46381;PMS5003;66809;52.974;-2.514;2023-02-28T00:55:48;19.55;18.55;
46381;PMS5003;66809;52.974;-2.514;2023-02-28T00:57:47;19.216666666666665;18.216666666666665;
46381;PMS5003;66809;52.974;-2.514;2023-02-28T00:59:47;18.883333333333333;17.95;
46381;PMS5003;66809;52.974;-2.514;2023-02-28T01:01:47;18.833333333333332;17.883333333333333;
46381;PMS5003;66809;52.974;-2.514;2023-02-28T01:03:47;18.75;17.716666666666665;
46381;PMS5003;66809;52.974;-2.514;2023-02-28T01:05:47;18.333333333333332;17.316666666666666;
46381;PMS5003;66809;52.974;-2.514;2023-02-28T01:07:47;18.3;17.283333333333335;
46381;PMS5003;66809;52.974;-2.514;2023-02-28T01:09:47;17.9;16.9;
46381;PMS5003;66809;52.974;-2.514;2023-02-28T01:11:47;17.716666666666665;16.766666666666666;
46381;PMS5003;66809;52.974;-2.514;2023-02-28T01:13:47;17.733333333333334;16.816666666666666;
46381;PMS5003;66809;52.974;-2.514;2023-02-28T01:15:49;17.633333333333333;16.716666666666665;
46381;PMS5003;66809;52.974;-2.514;2023-02-28T01:17:47;17.5;16.566666666666666;
46381;PMS5003;66809;52.974;-2.514;2023-02-28T01:19:47;17.283333333333335;16.4;
46381;PMS5003;66809;52.974;-2.514;2023-02-28T01:21:47;17.033333333333335;16.133333333333333;
46381;PMS5003;66809;52.974;-2.514;2023-02-28T01:23:47;16.95;16.0;
46381;PMS5003;66809;52.974;-2.514;2023-02-28T01:25:47;16.85;15.9;
46381;PMS5003;66809;52.974;-2.514;2023-02-28T01:27:47;16.833333333333332;15.85;
46381;PMS5003;66809;52.974;-2.514;2023-02-28T01:29:47;16.766666666666666;15.766666666666667;
46381;PMS5003;66809;52.974;-2.514;2023-02-28T01:31:47;16.85;15.816666666666666;
46381;PMS5003;66809;52.974;-2.514;2023-02-28T01:33:47;16.9;15.816666666666666;
46381;PMS5003;66809;52.974;-2.514;2023-02-28T01:35:47;16.933333333333334;15.866666666666667;
46381;PMS5003;66809;52.974;-2.514;2023-02-28T01:37:47;17.066666666666666;16.0;
46381;PMS5003;66809;52.974;-2.514;2023-02-28T01:39:47;17.083333333333332;16.05;
46381;PMS5003;66809;52.974;-2.514;2023-02-28T01:41:46;17.1;16.1;
46381;PMS5003;66809;52.974;-2.514;2023-02-28T01:43:56;16.983333333333334;16.05;
46381;PMS5003;66809;52.974;-2.514;2023-02-28T01:45:47;17.066666666666666;16.133333333333333;
46381;PMS5003;66809;52.974;-2.514;2023-02-28T01:47:47;17.1;16.133333333333333;
46381;PMS5003;66809;52.974;-2.514;2023-02-28T01:49:47;17.116666666666667;16.15;
46381;PMS5003;66809;52.974;-2.514;2023-02-28T01:51:48;17.216666666666665;16.216666666666665;
46381;PMS5003;66809;52.974;-2.514;2023-02-28T01:53:47;17.183333333333334;16.233333333333334;
46381;PMS5003;66809;52.974;-2.514;2023-02-28T01:55:48;17.233333333333334;16.283333333333335;
46381;PMS5003;66809;52.974;-2.514;2023-02-28T01:57:48;17.466666666666665;16.4;
46381;PMS5003;66809;52.974;-2.514;2023-02-28T01:59:48;17.55;16.483333333333334;
46381;PMS5003;66809;52.974;-2.514;2023-02-28T02:01:47;17.366666666666667;16.316666666666666;
46381;PMS5003;66809;52.974;-2.514;2023-02-28T02:03:47;17.35;16.316666666666666;
46381;PMS5003;66809;52.974;-2.514;2023-02-28T02:05:47;17.5;16.433333333333334;
46381;PMS5003;66809;52.974;-2.514;2023-02-28T02:07:48;17.533333333333335;16.433333333333334;
46381;PMS5003;66809;52.974;-2.514;2023-02-28T02:09:47;17.783333333333335;16.666666666666668;
46381;PMS5003;66809;52.974;-2.514;2023-02-28T02:11:47;17.783333333333335;16.633333333333333;
46381;PMS5003;66809;52.974;-2.514;2023-02-28T02:13:56;17.866666666666667;16.683333333333334;
46381;PMS5003;66809;52.974;-2.514;2023-02-28T02:15:49;17.916666666666668;16.716666666666665;
46381;PMS5003;66809;52.974;-2.514;2023-02-28T02:17:48;17.95;16.716666666666665;
46381;PMS5003;66809;52.974;-2.514;2023-02-28T02:20:07;18.2;16.833333333333332;
46381;PMS5003;66809;52.974;-2.514;2023-02-28T02:21:52;18.433333333333334;17.0;
46381;PMS5003;66809;52.974;-2.514;2023-02-28T02:24:24;18.566666666666666;17.116666666666667;
46381;PMS5003;66809;52.974;-2.514;2023-02-28T02:25:49;18.516666666666666;17.1;
46381;PMS5003;66809;52.974;-2.514;2023-02-28T02:27:54;18.583333333333332;17.2;
46381;PMS5003;66809;52.974;-2.514;2023-02-28T02:30:27;18.716666666666665;17.35;
46381;PMS5003;66809;52.974;-2.514;2023-02-28T02:31:53;18.833333333333332;17.416666666666668;
46381;PMS5003;66809;52.974;-2.514;2023-02-28T02:34:01;19.05;17.666666666666668;
46381;PMS5003;66809;52.974;-2.514;2023-02-28T02:35:47;19.1;17.65;
46381;PMS5003;66809;52.974;-2.514;2023-02-28T02:37:48;19.083333333333332;17.633333333333333;
46381;PMS5003;66809;52.974;-2.514;2023-02-28T02:39:48;19.333333333333332;17.85;
46381;PMS5003;66809;52.974;-2.514;2023-02-28T02:41:48;19.416666666666668;17.916666666666668;
46381;PMS5003;66809;52.974;-2.514;2023-02-28T02:43:48;19.6;18.033333333333335;
46381;PMS5003;66809;52.974;-2.514;2023-02-28T02:45:47;19.6;17.983333333333334;
46381;PMS5003;66809;52.974;-2.514;2023-02-28T02:47:47;19.666666666666668;18.066666666666666;
46381;PMS5003;66809;52.974;-2.514;2023-02-28T02:49:48;19.833333333333332;18.2;
46381;PMS5003;66809;52.974;-2.514;2023-02-28T02:51:47;19.966666666666665;18.35;
46381;PMS5003;66809;52.974;-2.514;2023-02-28T02:53:48;19.983333333333334;18.266666666666666;
46381;PMS5003;66809;52.974;-2.514;2023-02-28T02:55:47;19.9;18.25;
46381;PMS5003;66809;52.974;-2.514;2023-02-28T02:57:48;19.5;18.033333333333335;
46381;PMS5003;66809;52.974;-2.514;2023-02-28T02:59:47;19.6;18.15;
46381;PMS5003;66809;52.974;-2.514;2023-02-28T03:01:47;19.516666666666666;18.05;
46381;PMS5003;66809;52.974;-2.514;2023-02-28T03:03:47;19.45;18.05;
46381;PMS5003;66809;52.974;-2.514;2023-02-28T03:05:47;19.266666666666666;17.883333333333333;
46381;PMS5003;66809;52.974;-2.514;2023-02-28T03:07:47;19.05;17.7;
46381;PMS5003;66809;52.974;-2.514;2023-02-28T03:09:51;18.716666666666665;17.366666666666667;
46381;PMS5003;66809;52.974;-2.514;2023-02-28T03:11:47;18.633333333333333;17.316666666666666;
46381;PMS5003;66809;52.974;-2.514;2023-02-28T03:13:52;18.316666666666666;17.0;
46381;PMS5003;66809;52.974;-2.514;2023-02-28T03:15:52;18.066666666666666;16.8;
46381;PMS5003;66809;52.974;-2.514;2023-02-28T03:17:55;18.016666666666666;16.766666666666666;
46381;PMS5003;66809;52.974;-2.514;2023-02-28T03:19:48;17.65;16.5;
46381;PMS5003;66809;52.974;-2.514;2023-02-28T03:21:49;17.366666666666667;16.3;
46381;PMS5003;66809;52.974;-2.514;2023-02-28T03:23:49;17.2;16.2;
46381;PMS5003;66809;52.974;-2.514;2023-02-28T03:25:52;16.9;15.916666666666666;
46381;PMS5003;66809;52.974;-2.514;2023-02-28T03:27:50;16.783333333333335;15.766666666666667;
46381;PMS5003;66809;52.974;-2.514;2023-02-28T03:29:47;16.55;15.55;
46381;PMS5003;66809;52.974;-2.514;2023-02-28T03:31:48;16.5;15.533333333333333;
46381;PMS5003;66809;52.974;-2.514;2023-02-28T03:33:49;16.266666666666666;15.283333333333333;
46381;PMS5003;66809;52.974;-2.514;2023-02-28T03:35:48;16.116666666666667;15.183333333333334;
46381;PMS5003;66809;52.974;-2.514;2023-02-28T03:37:47;16.016666666666666;15.016666666666667;
46381;PMS5003;66809;52.974;-2.514;2023-02-28T03:39:49;15.783333333333333;14.783333333333333;
46381;PMS5003;66809;52.974;-2.514;2023-02-28T03:41:47;15.666666666666666;14.6;
46381;PMS5003;66809;52.974;-2.514;2023-02-28T03:43:48;15.533333333333333;14.516666666666667;
46381;PMS5003;66809;52.974;-2.514;2023-02-28T03:45:47;15.316666666666666;14.316666666666666;
46381;PMS5003;66809;52.974;-2.514;2023-02-28T03:47:49;15.033333333333333;14.0;
46381;PMS5003;66809;52.974;-2.514;2023-02-28T03:49:48;14.65;13.666666666666666;
46381;PMS5003;66809;52.974;-2.514;2023-02-28T03:51:48;14.366666666666667;13.4;
46381;PMS5003;66809;52.974;-2.514;2023-02-28T03:53:47;14.216666666666667;13.316666666666666;
46381;PMS5003;66809;52.974;-2.514;2023-02-28T03:55:48;14.183333333333334;13.25;
46381;PMS5003;66809;52.974;-2.514;2023-02-28T03:57:50;14.2;13.25;
46381;PMS5003;66809;52.974;-2.514;2023-02-28T03:59:47;14.033333333333333;13.083333333333334;
46381;PMS5003;66809;52.974;-2.514;2023-02-28T04:01:48;13.983333333333333;13.033333333333333;
46381;PMS5003;66809;52.974;-2.514;2023-02-28T04:03:48;13.866666666666667;12.866666666666667;
46381;PMS5003;66809;52.974;-2.514;2023-02-28T04:05:48;13.8;12.816666666666666;
46381;PMS5003;66809;52.974;-2.514;2023-02-28T04:07:47;13.666666666666666;12.7;
46381;PMS5003;66809;52.974;-2.514;2023-02-28T04:09:47;13.616666666666667;12.633333333333333;
46381;PMS5003;66809;52.974;-2.514;2023-02-28T04:11:48;13.616666666666667;12.533333333333333;
46381;PMS5003;66809;52.974;-2.514;2023-02-28T04:13:47;13.616666666666667;12.5;
46381;PMS5003;66809;52.974;-2.514;2023-02-28T04:15:47;13.633333333333333;12.516666666666667;
46381;PMS5003;66809;52.974;-2.514;2023-02-28T04:17:47;13.416666666666666;12.333333333333334;
46381;PMS5003;66809;52.974;-2.514;2023-02-28T04:19:47;13.55;12.483333333333333;
46381;PMS5003;66809;52.974;-2.514;2023-02-28T04:21:48;13.633333333333333;12.5;
46381;PMS5003;66809;52.974;-2.514;2023-02-28T04:23:47;13.45;12.316666666666666;
46381;PMS5003;66809;52.974;-2.514;2023-02-28T04:25:47;13.466666666666667;12.35;
46381;PMS5003;66809;52.974;-2.514;2023-02-28T04:27:47;13.4;12.3;
46381;PMS5003;66809;52.974;-2.514;2023-02-28T04:29:47;13.35;12.216666666666667;
46381;PMS5003;66809;52.974;-2.514;2023-02-28T04:31:47;13.15;12.033333333333333;
46381;PMS5003;66809;52.974;-2.514;2023-02-28T04:33:47;13.05;11.933333333333334;
46381;PMS5003;66809;52.974;-2.514;2023-02-28T04:35:47;13.016666666666667;11.883333333333333;
46381;PMS5003;66809;52.974;-2.514;2023-02-28T04:37:47;13.25;12.116666666666667;
46381;PMS5003;66809;52.974;-2.514;2023-02-28T04:39:47;13.266666666666667;12.1;
46381;PMS5003;66809;52.974;-2.514;2023-02-28T04:41:47;13.316666666666666;12.216666666666667;
46381;PMS5003;66809;52.974;-2.514;2023-02-28T04:43:47;13.316666666666666;12.233333333333333;
46381;PMS5003;66809;52.974;-2.514;2023-02-28T04:45:47;13.35;12.3;
46381;PMS5003;66809;52.974;-2.514;2023-02-28T04:47:47;13.55;12.516666666666667;
46381;PMS5003;66809;52.974;-2.514;2023-02-28T04:49:47;13.666666666666666;12.616666666666667;
46381;PMS5003;66809;52.974;-2.514;2023-02-28T04:51:47;13.75;12.716666666666667;
46381;PMS5003;66809;52.974;-2.514;2023-02-28T04:53:47;13.916666666666666;12.85;
46381;PMS5003;66809;52.974;-2.514;2023-02-28T04:55:47;14.016666666666667;12.916666666666666;
46381;PMS5003;66809;52.974;-2.514;2023-02-28T04:57:47;14.183333333333334;13.083333333333334;
46381;PMS5003;66809;52.974;-2.514;2023-02-28T04:59:48;14.316666666666666;13.2;
46381;PMS5003;66809;52.974;-2.514;2023-02-28T05:01:48;14.416666666666666;13.35;
46381;PMS5003;66809;52.974;-2.514;2023-02-28T05:03:47;14.666666666666666;13.583333333333334;
46381;PMS5003;66809;52.974;-2.514;2023-02-28T05:05:47;14.833333333333334;13.766666666666667;
46381;PMS5003;66809;52.974;-2.514;2023-02-28T05:07:47;14.933333333333334;13.85;
46381;PMS5003;66809;52.974;-2.514;2023-02-28T05:09:47;15.1;14.066666666666666;
46381;PMS5003;66809;52.974;-2.514;2023-02-28T05:11:47;15.233333333333333;14.25;
46381;PMS5003;66809;52.974;-2.514;2023-02-28T05:13:47;15.25;14.316666666666666;
46381;PMS5003;66809;52.974;-2.514;2023-02-28T05:15:46;15.35;14.383333333333333;
46381;PMS5003;66809;52.974;-2.514;2023-02-28T05:17:47;15.566666666666666;14.6;
46381;PMS5003;66809;52.974;-2.514;2023-02-28T05:19:47;15.666666666666666;14.666666666666666;
46381;PMS5003;66809;52.974;-2.514;2023-02-28T05:21:49;15.816666666666666;14.816666666666666;
46381;PMS5003;66809;52.974;-2.514;2023-02-28T05:23:47;16.133333333333333;15.116666666666667;
46381;PMS5003;66809;52.974;-2.514;2023-02-28T05:25:47;16.433333333333334;15.383333333333333;
46381;PMS5003;66809;52.974;-2.514;2023-02-28T05:27:48;16.566666666666666;15.55;
46381;PMS5003;66809;52.974;-2.514;2023-02-28T05:29:47;16.766666666666666;15.75;
46381;PMS5003;66809;52.974;-2.514;2023-02-28T05:31:47;17.1;16.066666666666666;
46381;PMS5003;66809;52.974;-2.514;2023-02-28T05:33:47;17.433333333333334;16.366666666666667;
46381;PMS5003;66809;52.974;-2.514;2023-02-28T05:35:47;17.766666666666666;16.583333333333332;
46381;PMS5003;66809;52.974;-2.514;2023-02-28T05:37:47;17.783333333333335;16.633333333333333;
46381;PMS5003;66809;52.974;-2.514;2023-02-28T05:39:47;17.966666666666665;16.783333333333335;
46381;PMS5003;66809;52.974;-2.514;2023-02-28T05:41:47;18.033333333333335;16.833333333333332;
46381;PMS5003;66809;52.974;-2.514;2023-02-28T05:43:47;18.266666666666666;17.033333333333335;
46381;PMS5003;66809;52.974;-2.514;2023-02-28T05:45:47;18.45;17.2;
46381;PMS5003;66809;52.974;-2.514;2023-02-28T05:47:47;18.5;17.233333333333334;
46381;PMS5003;66809;52.974;-2.514;2023-02-28T05:49:47;18.616666666666667;17.316666666666666;
46381;PMS5003;66809;52.974;-2.514;2023-02-28T05:51:47;18.833333333333332;17.483333333333334;
46381;PMS5003;66809;52.974;-2.514;2023-02-28T05:53:47;18.916666666666668;17.616666666666667;
46381;PMS5003;66809;52.974;-2.514;2023-02-28T05:55:47;18.883333333333333;17.616666666666667;
46381;PMS5003;66809;52.974;-2.514;2023-02-28T05:57:47;18.85;17.6;
46381;PMS5003;66809;52.974;-2.514;2023-02-28T05:59:47;18.816666666666666;17.55;
46381;PMS5003;66809;52.974;-2.514;2023-02-28T06:01:47;19.0;17.716666666666665;
46381;PMS5003;66809;52.974;-2.514;2023-02-28T06:03:47;18.883333333333333;17.516666666666666;
46381;PMS5003;66809;52.974;-2.514;2023-02-28T06:05:47;18.766666666666666;17.366666666666667;
46381;PMS5003;66809;52.974;-2.514;2023-02-28T06:07:47;18.766666666666666;17.383333333333333;
46381;PMS5003;66809;52.974;-2.514;2023-02-28T06:09:47;18.633333333333333;17.233333333333334;
46381;PMS5003;66809;52.974;-2.514;2023-02-28T06:11:47;18.633333333333333;17.283333333333335;
46381;PMS5003;66809;52.974;-2.514;2023-02-28T06:13:47;18.75;17.416666666666668;
46381;PMS5003;66809;52.974;-2.514;2023-02-28T06:15:47;18.816666666666666;17.433333333333334;
46381;PMS5003;66809;52.974;-2.514;2023-02-28T06:17:47;18.816666666666666;17.433333333333334;
46381;PMS5003;66809;52.974;-2.514;2023-02-28T06:19:47;18.783333333333335;17.416666666666668;
46381;PMS5003;66809;52.974;-2.514;2023-02-28T06:21:48;18.716666666666665;17.35;
46381;PMS5003;66809;52.974;-2.514;2023-02-28T06:23:47;18.65;17.25;
46381;PMS5003;66809;52.974;-2.514;2023-02-28T06:25:47;18.516666666666666;17.116666666666667;
46381;PMS5003;66809;52.974;-2.514;2023-02-28T06:27:47;18.466666666666665;17.05;
46381;PMS5003;66809;52.974;-2.514;2023-02-28T06:29:47;18.283333333333335;16.9;
46381;PMS5003;66809;52.974;-2.514;2023-02-28T06:31:47;17.95;16.6;
46381;PMS5003;66809;52.974;-2.514;2023-02-28T06:33:47;17.866666666666667;16.516666666666666;
46381;PMS5003;66809;52.974;-2.514;2023-02-28T06:35:47;17.65;16.383333333333333;
46381;PMS5003;66809;52.974;-2.514;2023-02-28T06:37:48;17.55;16.216666666666665;
46381;PMS5003;66809;52.974;-2.514;2023-02-28T06:39:47;17.333333333333332;16.05;
46381;PMS5003;66809;52.974;-2.514;2023-02-28T06:41:47;17.083333333333332;15.833333333333334;
46381;PMS5003;66809;52.974;-2.514;2023-02-28T06:43:47;16.883333333333333;15.666666666666666;
46381;PMS5003;66809;52.974;-2.514;2023-02-28T06:45:47;16.766666666666666;15.583333333333334;
46381;PMS5003;66809;52.974;-2.514;2023-02-28T06:47:47;16.8;15.6;
46381;PMS5003;66809;52.974;-2.514;2023-02-28T06:49:47;16.8;15.616666666666667;
46381;PMS5003;66809;52.974;-2.514;2023-02-28T06:51:47;16.75;15.583333333333334;
46381;PMS5003;66809;52.974;-2.514;2023-02-28T06:53:47;16.666666666666668;15.483333333333333;
46381;PMS5003;66809;52.974;-2.514;2023-02-28T06:55:47;16.45;15.3;
46381;PMS5003;66809;52.974;-2.514;2023-02-28T06:57:47;16.483333333333334;15.266666666666667;
46381;PMS5003;66809;52.974;-2.514;2023-02-28T06:59:47;16.5;15.3;
46381;PMS5003;66809;52.974;-2.514;2023-02-28T07:01:47;16.366666666666667;15.116666666666667;
46381;PMS5003;66809;52.974;-2.514;2023-02-28T07:03:47;16.566666666666666;15.433333333333334;
46381;PMS5003;66809;52.974;-2.514;2023-02-28T07:05:47;17.0;15.766666666666667;
46381;PMS5003;66809;52.974;-2.514;2023-02-28T07:07:47;17.083333333333332;15.833333333333334;
46381;PMS5003;66809;52.974;-2.514;2023-02-28T07:09:47;17.35;16.016666666666666;
46381;PMS5003;66809;52.974;-2.514;2023-02-28T07:11:47;17.533333333333335;16.15;
46381;PMS5003;66809;52.974;-2.514;2023-02-28T07:13:47;17.5;16.083333333333332;
46381;PMS5003;66809;52.974;-2.514;2023-02-28T07:15:52;17.483333333333334;16.066666666666666;
46381;PMS5003;66809;52.974;-2.514;2023-02-28T07:17:47;17.733333333333334;16.283333333333335;
46381;PMS5003;66809;52.974;-2.514;2023-02-28T07:19:47;17.6;16.133333333333333;
46381;PMS5003;66809;52.974;-2.514;2023-02-28T07:21:47;17.416666666666668;15.95;
46381;PMS5003;66809;52.974;-2.514;2023-02-28T07:23:47;17.533333333333335;16.083333333333332;
46381;PMS5003;66809;52.974;-2.514;2023-02-28T07:25:47;17.633333333333333;16.183333333333334;
46381;PMS5003;66809;52.974;-2.514;2023-02-28T07:27:47;17.583333333333332;16.133333333333333;
46381;PMS5003;66809;52.974;-2.514;2023-02-28T07:29:47;17.65;16.133333333333333;
46381;PMS5003;66809;52.974;-2.514;2023-02-28T07:31:47;17.716666666666665;16.183333333333334;
46381;PMS5003;66809;52.974;-2.514;2023-02-28T07:33:47;17.566666666666666;16.1;
46381;PMS5003;66809;52.974;-2.514;2023-02-28T07:35:47;17.466666666666665;16.016666666666666;
46381;PMS5003;66809;52.974;-2.514;2023-02-28T07:37:47;17.25;15.883333333333333;
46381;PMS5003;66809;52.974;-2.514;2023-02-28T07:39:47;17.15;15.8;
46381;PMS5003;66809;52.974;-2.514;2023-02-28T07:41:47;17.216666666666665;15.866666666666667;
46381;PMS5003;66809;52.974;-2.514;2023-02-28T07:43:47;17.2;15.816666666666666;
46381;PMS5003;66809;52.974;-2.514;2023-02-28T07:45:47;17.166666666666668;15.766666666666667;
46381;PMS5003;66809;52.974;-2.514;2023-02-28T07:47:47;16.983333333333334;15.583333333333334;
46381;PMS5003;66809;52.974;-2.514;2023-02-28T07:49:47;16.833333333333332;15.433333333333334;
46381;PMS5003;66809;52.974;-2.514;2023-02-28T07:51:47;16.733333333333334;15.316666666666666;
46381;PMS5003;66809;52.974;-2.514;2023-02-28T07:53:47;16.566666666666666;15.166666666666666;
46381;PMS5003;66809;52.974;-2.514;2023-02-28T07:55:47;16.733333333333334;15.3;
46381;PMS5003;66809;52.974;-2.514;2023-02-28T07:57:47;16.583333333333332;15.2;
46381;PMS5003;66809;52.974;-2.514;2023-02-28T07:59:47;16.6;15.25;
46381;PMS5003;66809;52.974;-2.514;2023-02-28T08:01:47;16.5;15.2;
46381;PMS5003;66809;52.974;-2.514;2023-02-28T08:03:47;16.15;14.85;
46381;PMS5003;66809;52.974;-2.514;2023-02-28T08:05:47;15.65;14.5;
46381;PMS5003;66809;52.974;-2.514;2023-02-28T08:07:48;15.583333333333334;14.416666666666666;
46381;PMS5003;66809;52.974;-2.514;2023-02-28T08:09:47;15.266666666666667;14.183333333333334;
46381;PMS5003;66809;52.974;-2.514;2023-02-28T08:11:47;14.85;13.816666666666666;
46381;PMS5003;66809;52.974;-2.514;2023-02-28T08:13:47;14.683333333333334;13.683333333333334;
46381;PMS5003;66809;52.974;-2.514;2023-02-28T08:15:47;14.633333333333333;13.683333333333334;
46381;PMS5003;66809;52.974;-2.514;2023-02-28T08:17:47;14.233333333333333;13.3;
46381;PMS5003;66809;52.974;-2.514;2023-02-28T08:19:47;14.25;13.366666666666667;
46381;PMS5003;66809;52.974;-2.514;2023-02-28T08:21:47;14.266666666666667;13.433333333333334;
46381;PMS5003;66809;52.974;-2.514;2023-02-28T08:23:47;13.966666666666667;13.166666666666666;
46381;PMS5003;66809;52.974;-2.514;2023-02-28T08:25:52;13.716666666666667;12.9;
46381;PMS5003;66809;52.974;-2.514;2023-02-28T08:27:47;13.616666666666667;12.8;
46381;PMS5003;66809;52.974;-2.514;2023-02-28T08:29:47;13.483333333333333;12.7;
46381;PMS5003;66809;52.974;-2.514;2023-02-28T08:31:47;13.4;12.65;
46381;PMS5003;66809;52.974;-2.514;2023-02-28T08:33:47;13.333333333333334;12.583333333333334;
46381;PMS5003;66809;52.974;-2.514;2023-02-28T08:35:47;13.216666666666667;12.45;
46381;PMS5003;66809;52.974;-2.514;2023-02-28T08:37:47;13.2;12.433333333333334;
46381;PMS5003;66809;52.974;-2.514;2023-02-28T08:39:47;13.183333333333334;12.4;
46381;PMS5003;66809;52.974;-2.514;2023-02-28T08:41:47;13.166666666666666;12.383333333333333;
46381;PMS5003;66809;52.974;-2.514;2023-02-28T08:43:47;13.1;12.316666666666666;
46381;PMS5003;66809;52.974;-2.514;2023-02-28T08:45:47;12.983333333333333;12.183333333333334;
46381;PMS5003;66809;52.974;-2.514;2023-02-28T08:47:47;12.85;12.116666666666667;
46381;PMS5003;66809;52.974;-2.514;2023-02-28T08:49:47;12.65;11.95;
46381;PMS5003;66809;52.974;-2.514;2023-02-28T08:51:47;12.5;11.783333333333333;
46381;PMS5003;66809;52.974;-2.514;2023-02-28T08:53:47;12.4;11.683333333333334;
46381;PMS5003;66809;52.974;-2.514;2023-02-28T08:55:47;12.216666666666667;11.483333333333333;
46381;PMS5003;66809;52.974;-2.514;2023-02-28T08:57:47;12.033333333333333;11.3;
46381;PMS5003;66809;52.974;-2.514;2023-02-28T08:59:47;11.716666666666667;10.966666666666667;
46381;PMS5003;66809;52.974;-2.514;2023-02-28T09:01:47;11.516666666666667;10.766666666666667;
46381;PMS5003;66809;52.974;-2.514;2023-02-28T09:03:48;11.3;10.583333333333334;
46381;PMS5003;66809;52.974;-2.514;2023-02-28T09:05:55;11.2;10.466666666666667;
46381;PMS5003;66809;52.974;-2.514;2023-02-28T09:07:47;10.9;10.2;
46381;PMS5003;66809;52.974;-2.514;2023-02-28T09:09:47;10.733333333333333;10.05;
46381;PMS5003;66809;52.974;-2.514;2023-02-28T09:11:47;10.666666666666666;9.983333333333333;
46381;PMS5003;66809;52.974;-2.514;2023-02-28T09:13:47;10.5;9.816666666666666;
46381;PMS5003;66809;52.974;-2.514;2023-02-28T09:15:47;10.133333333333333;9.483333333333333;
46381;PMS5003;66809;52.974;-2.514;2023-02-28T09:17:47;9.983333333333333;9.366666666666667;
46381;PMS5003;66809;52.974;-2.514;2023-02-28T09:19:48;9.7;9.05;
46381;PMS5003;66809;52.974;-2.514;2023-02-28T09:24:13;6.916666666666667;5.75;
46381;PMS5003;66809;52.974;-2.514;2023-02-28T09:26:15;7.071428571428571;5.928571428571429;
46381;PMS5003;66809;52.974;-2.514;2023-02-28T09:28:11;7.375;5.9375;
46381;PMS5003;66809;52.974;-2.514;2023-02-28T09:32:21;4.75;4.5;
46381;PMS5003;66809;52.974;-2.514;2023-02-28T09:37:53;3.75;3.0833333333333335;
46381;PMS5003;66809;52.974;-2.514;2023-02-28T09:39:52;4.142857142857143;3.5;